Time;durP1;ratioP1;P1;durP2;ratioP2;P2;SDS_P1;SDS_P2;PMS_P1;PMS_P2;Temp;Humidity;BMP_temperature;BMP_pressure;BME280_temperature;BME280_humidity;BME280_pressure;Samples;Min_cycle;Max_cycle;Signal;HPM_P1;HPM_P2
2021/10/19 00:01:26;;;;;;;;;;;;;;;9.73;61.67;101461.75;4921663;28;128035;-58
2021/10/19 00:03:52;;;;;;;;;;;;;;;9.74;62.00;101457.97;4883740;28;1126121;-58
2021/10/19 00:06:18;;;;;;;;;;;;;;;9.74;62.02;101464.19;4922488;28;116094;-58
2021/10/19 00:08:44;;;;;;;;;;;;;;;9.78;62.00;101454.56;4921709;28;127950;-58
2021/10/19 00:11:10;;;;;;;;;;;;;;;9.81;61.59;101450.59;4923174;28;98207;-57
2021/10/19 00:13:36;;;;;;;;;;;;;;;9.83;61.27;101448.50;4921048;28;126389;-58
2021/10/19 00:16:04;;;;;;;;;;;;;;;9.86;61.77;101457.97;4922940;28;97875;-58
2021/10/19 00:18:30;;;;;;;;;;;;;;;9.87;62.19;101446.16;4920180;28;118827;-58
2021/10/19 00:20:56;;;;;;;;;;;;;;;9.88;61.26;101445.91;4922626;28;98289;-58
2021/10/19 00:23:22;;;;;;;;;;;;;;;9.88;61.68;101429.75;4921762;28;114941;-57
2021/10/19 00:25:48;;;;;;;;;;;;;;;9.88;61.71;101429.75;4923068;28;97793;-57
2021/10/19 00:28:14;;;;;;;;;;;;;;;9.89;61.20;101431.38;4920357;28;125793;-57
2021/10/19 00:30:40;;;;;;;;;;;;;;;9.90;61.93;101435.69;4923604;28;98361;-58
2021/10/19 00:33:05;;;;;;;;;;;;;;;9.92;61.98;101440.84;4919631;28;128297;-58
2021/10/19 00:35:31;;;;;;;;;;;;;;;9.92;61.36;101447.06;4921983;28;116374;-58
2021/10/19 00:37:57;;;;;;;;;;;;;;;9.95;61.79;101443.09;4921185;28;127937;-56
2021/10/19 00:40:23;;;;;;;;;;;;;;;9.95;62.08;101443.91;4921140;28;127067;-57
2021/10/19 00:42:49;;;;;;;;;;;;;;;9.94;62.03;101444.97;4921707;28;114731;-57
2021/10/19 00:45:15;;;;;;;;;;;;;;;9.95;62.13;101435.81;4922098;28;116513;-58
2021/10/19 00:47:48;;;;;;;;;;;;;;;9.96;62.15;101433.94;4922237;28;111261;-57
2021/10/19 00:50:14;;;;;;;;;;;;;;;9.97;62.02;101424.78;4922551;28;98812;-58
2021/10/19 00:52:40;;;;;;;;;;;;;;;9.96;62.26;101432.06;4920717;28;98421;-58
2021/10/19 00:55:07;;;;;;;;;;;;;;;9.97;62.21;101441.75;4903190;28;118269;-57
2021/10/19 00:57:33;;;;;;;;;;;;;;;9.98;61.34;101431.81;4921528;28;119354;-58
2021/10/19 00:59:59;;;;;;;;;;;;;;;9.98;61.88;101429.09;4922197;28;128560;-57
2021/10/19 01:02:25;;;;;;;;;;;;;;;9.98;62.07;101434.50;4920928;28;112476;-58
2021/10/19 01:04:51;;;;;;;;;;;;;;;9.97;61.48;101432.88;4904247;28;98969;-58
2021/10/19 01:07:17;;;;;;;;;;;;;;;9.96;62.15;101423.16;4921608;28;120095;-58
2021/10/19 01:09:43;;;;;;;;;;;;;;;9.95;61.72;101408.06;4903609;28;117962;-57
2021/10/19 01:12:09;;;;;;;;;;;;;;;9.94;61.94;101418.03;4921702;28;127011;-57
2021/10/19 01:14:35;;;;;;;;;;;;;;;9.91;61.65;101401.53;4922123;28;97935;-57
2021/10/19 01:17:01;;;;;;;;;;;;;;;9.91;62.20;101401.53;4921409;28;114016;-58
2021/10/19 01:19:27;;;;;;;;;;;;;;;9.90;62.56;101410.63;4921809;28;97774;-58
2021/10/19 01:21:57;;;;;;;;;;;;;;;9.89;62.02;101388.28;4921907;28;106861;-60
2021/10/19 01:24:23;;;;;;;;;;;;;;;9.88;61.73;101380.47;4922202;28;108337;-57
2021/10/19 01:26:49;;;;;;;;;;;;;;;9.84;61.70;101366.66;4921355;28;120755;-57
2021/10/19 01:29:15;;;;;;;;;;;;;;;9.83;61.95;101362.34;4920804;28;118291;-57
2021/10/19 01:31:48;;;;;;;;;;;;;;;9.81;62.23;101370.63;4902577;28;129004;-57
2021/10/19 01:34:14;;;;;;;;;;;;;;;9.79;62.37;101366.56;4921735;28;98300;-58
2021/10/19 01:36:40;;;;;;;;;;;;;;;9.78;61.95;101367.59;4920688;28;121425;-58
2021/10/19 01:39:06;;;;;;;;;;;;;;;9.79;62.50;101366.56;4921239;28;116479;-57
2021/10/19 01:41:32;;;;;;;;;;;;;;;9.79;62.52;101358.47;4922054;28;97842;-58
2021/10/19 01:43:58;;;;;;;;;;;;;;;9.79;62.56;101361.19;4920332;28;117653;-57
2021/10/19 01:46:25;;;;;;;;;;;;;;;9.79;62.19;101350.41;4920872;28;127055;-57
2021/10/19 01:48:51;;;;;;;;;;;;;;;9.79;61.92;101350.41;4920974;28;99202;-58
2021/10/19 01:51:17;;;;;;;;;;;;;;;9.78;62.32;101352.25;4921017;28;98631;-57
2021/10/19 01:53:43;;;;;;;;;;;;;;;9.79;62.52;101358.47;4935715;28;103104;-57
2021/10/19 01:56:10;;;;;;;;;;;;;;;9.77;62.02;101361.41;4935723;28;107562;-58
2021/10/19 01:58:36;;;;;;;;;;;;;;;9.78;62.11;101360.34;4921286;28;98568;-58
2021/10/19 02:01:02;;;;;;;;;;;;;;;9.78;62.46;101354.94;4921194;28;98423;-57
2021/10/19 02:03:28;;;;;;;;;;;;;;;9.79;61.82;101353.91;4920641;28;116809;-57
2021/10/19 02:05:54;;;;;;;;;;;;;;;9.79;62.54;101348.53;4920935;28;126740;-57
2021/10/19 02:08:20;;;;;;;;;;;;;;;9.79;62.50;101345.03;4920527;28;128695;-58
2021/10/19 02:10:46;;;;;;;;;;;;;;;9.79;62.38;101347.72;4920890;28;127303;-57
2021/10/19 02:13:11;;;;;;;;;;;;;;;9.81;62.34;101361.75;4920326;28;117867;-57
2021/10/19 02:15:38;;;;;;;;;;;;;;;9.81;62.22;101354.47;4920123;28;128278;-57
2021/10/19 02:18:04;;;;;;;;;;;;;;;9.83;61.72;101352.38;4920239;28;99416;-58
2021/10/19 02:20:30;;;;;;;;;;;;;;;9.83;62.11;101344.28;4921390;28;98298;-57
2021/10/19 02:22:57;;;;;;;;;;;;;;;9.84;61.78;101335.16;4921254;28;97716;-58
2021/10/19 02:25:24;;;;;;;;;;;;;;;9.87;61.94;101335.75;4903334;28;98202;-57
2021/10/19 02:27:49;;;;;;;;;;;;;;;9.87;62.29;101344.63;4920990;28;98944;-57
2021/10/19 02:30:16;;;;;;;;;;;;;;;9.88;62.27;101348.13;4920712;28;127725;-57
2021/10/19 02:32:43;;;;;;;;;;;;;;;9.88;62.14;101348.94;4920673;28;98121;-57
2021/10/19 02:35:10;;;;;;;;;;;;;;;9.90;62.72;101354.09;4921678;28;98276;-58
2021/10/19 02:37:35;;;;;;;;;;;;;;;9.91;62.53;101344.97;4920375;28;99201;-57
2021/10/19 02:40:02;;;;;;;;;;;;;;;9.91;62.86;101353.84;4920583;28;115192;-57
2021/10/19 02:42:28;;;;;;;;;;;;;;;9.93;62.24;101369.78;4919677;28;98596;-57
2021/10/19 02:44:54;;;;;;;;;;;;;;;9.92;62.54;101350.09;4920642;28;113179;-58
2021/10/19 02:47:19;;;;;;;;;;;;;;;9.94;62.47;101356.06;4921222;28;98348;-57
2021/10/19 02:49:45;;;;;;;;;;;;;;;9.95;62.10;101357.72;4920059;28;127793;-57
2021/10/19 02:52:11;;;;;;;;;;;;;;;9.95;62.51;101352.31;4920150;28;117878;-57
2021/10/19 02:54:37;;;;;;;;;;;;;;;9.96;61.89;101350.44;4921240;28;97727;-58
2021/10/19 02:57:03;;;;;;;;;;;;;;;9.96;62.80;101345.06;4923339;28;98526;-57
2021/10/19 02:59:29;;;;;;;;;;;;;;;9.95;62.50;101344.25;4922964;28;125897;-60
2021/10/19 03:01:55;;;;;;;;;;;;;;;9.94;62.01;101342.63;4889525;28;97959;-58
2021/10/19 03:04:21;;;;;;;;;;;;;;;9.94;62.37;101322.91;4904456;28;128249;-58
2021/10/19 03:06:47;;;;;;;;;;;;;;;9.91;62.75;101329.63;4922633;28;126475;-58
2021/10/19 03:09:13;;;;;;;;;;;;;;;9.88;62.21;101346.25;4922965;28;127856;-58
2021/10/19 03:11:39;;;;;;;;;;;;;;;9.89;62.66;101352.47;4923485;28;117645;-57
2021/10/19 03:14:05;;;;;;;;;;;;;;;9.89;62.74;101349.75;4923190;28;99345;-58
2021/10/19 03:16:31;;;;;;;;;;;;;;;9.88;62.54;101343.56;4923649;28;98889;-57
2021/10/19 03:18:57;;;;;;;;;;;;;;;9.87;63.04;101341.94;4923128;28;118424;-57
2021/10/19 03:21:22;;;;;;;;;;;;;;;9.82;62.20;101337.28;4923968;28;98112;-57
2021/10/19 03:23:48;;;;;;;;;;;;;;;9.79;62.63;101332.38;4922747;28;128808;-58
2021/10/19 03:26:16;;;;;;;;;;;;;;;9.76;62.95;101332.03;4904376;28;128050;-58
2021/10/19 03:28:44;;;;;;;;;;;;;;;9.72;62.50;101341.66;4923646;28;97724;-58
2021/10/19 03:31:10;;;;;;;;;;;;;;;9.68;62.71;101330.53;4924068;28;97859;-58
2021/10/19 03:33:36;;;;;;;;;;;;;;;9.65;62.44;101328.31;4937383;28;98898;-57
2021/10/19 03:36:03;;;;;;;;;;;;;;;9.62;62.70;101325.28;4937435;28;128849;-58
2021/10/19 03:38:29;;;;;;;;;;;;;;;9.56;62.79;101330.59;4889388;28;98172;-58
2021/10/19 03:40:55;;;;;;;;;;;;;;;9.52;62.62;101326.72;4922681;28;117341;-57
2021/10/19 03:43:21;;;;;;;;;;;;;;;9.47;62.49;101323.94;4922511;28;128681;-58
2021/10/19 03:45:47;;;;;;;;;;;;;;;9.44;62.67;101320.91;4922226;28;128566;-56
2021/10/19 03:48:13;;;;;;;;;;;;;;;9.40;63.17;101319.75;4922899;28;104693;-57
2021/10/19 03:50:39;;;;;;;;;;;;;;;9.36;62.79;101324.00;4922799;28;116614;-58
2021/10/19 03:53:04;;;;;;;;;;;;;;;9.34;63.19;101326.91;4903310;28;126911;-57
2021/10/19 03:55:30;;;;;;;;;;;;;;;9.29;63.13;101322.25;4921797;28;128635;-58
2021/10/19 03:57:56;;;;;;;;;;;;;;;9.28;62.64;101327.88;4904954;28;98377;-58
2021/10/19 04:00:22;;;;;;;;;;;;;;;9.24;63.13;101327.53;4923075;28;117687;-58
2021/10/19 04:02:48;;;;;;;;;;;;;;;9.21;62.80;101335.25;4921463;28;127833;-58
2021/10/19 04:05:14;;;;;;;;;;;;;;;9.18;62.71;101343.78;4922443;28;125938;-58
2021/10/19 04:07:40;;;;;;;;;;;;;;;9.15;63.43;101345.06;4921301;28;98001;-57
2021/10/19 04:10:06;;;;;;;;;;;;;;;9.12;63.37;101342.03;4922158;28;116016;-58
2021/10/19 04:12:32;;;;;;;;;;;;;;;9.09;62.86;101336.09;4922435;28;99617;-57
2021/10/19 04:14:58;;;;;;;;;;;;;;;9.05;63.03;101332.22;4922463;28;128650;-57
2021/10/19 04:17:24;;;;;;;;;;;;;;;9.00;63.14;101336.66;4922059;28;121145;-57
2021/10/19 04:19:50;;;;;;;;;;;;;;;8.96;63.48;101338.19;4922189;28;117448;-58
2021/10/19 04:22:16;;;;;;;;;;;;;;;8.92;63.12;101339.72;4921213;28;128658;-58
2021/10/19 04:24:42;;;;;;;;;;;;;;;8.90;63.48;101341.84;4922173;28;98873;-58
2021/10/19 04:27:08;;;;;;;;;;;;;;;8.85;63.37;101335.28;4923130;28;98240;-59
2021/10/19 04:29:34;;;;;;;;;;;;;;;8.87;63.32;101334.22;4922463;28;116861;-58
2021/10/19 04:32:00;;;;;;;;;;;;;;;8.84;63.73;101328.28;4921474;28;98932;-58
2021/10/19 04:34:26;;;;;;;;;;;;;;;8.83;63.09;101325.81;4903494;28;128571;-58
2021/10/19 04:36:51;;;;;;;;;;;;;;;8.81;63.64;101336.00;4922226;28;98468;-58
2021/10/19 04:39:17;;;;;;;;;;;;;;;8.79;63.25;101333.53;4922062;28;117359;-60
2021/10/19 04:41:44;;;;;;;;;;;;;;;8.77;63.38;101334.84;4920303;28;117129;-57
2021/10/19 04:44:13;;;;;;;;;;;;;;;8.77;63.70;101337.53;4919635;28;99161;-57
2021/10/19 04:46:40;;;;;;;;;;;;;;;8.74;63.63;101333.41;4919280;28;108732;-57
2021/10/19 04:49:06;;;;;;;;;;;;;;;8.72;63.50;101326.63;4918944;28;97994;-59
2021/10/19 04:51:32;;;;;;;;;;;;;;;8.70;63.50;101326.06;4918813;28;98454;-57
2021/10/19 04:53:58;;;;;;;;;;;;;;;8.68;63.69;101310.16;4919099;28;98972;-58
2021/10/19 04:56:24;;;;;;;;;;;;;;;8.66;63.44;101304.19;4917373;28;127617;-59
2021/10/19 04:58:50;;;;;;;;;;;;;;;8.64;63.50;101305.47;4919080;28;104622;-57
2021/10/19 05:01:16;;;;;;;;;;;;;;;8.64;63.57;101305.47;4936511;28;128384;-59
2021/10/19 05:03:46;;;;;;;;;;;;;;;8.63;63.39;101299.28;4922219;28;100004;-57
2021/10/19 05:06:13;;;;;;;;;;;;;;;8.61;63.60;101301.41;4922208;28;98088;-58
2021/10/19 05:08:39;;;;;;;;;;;;;;;8.60;63.93;101299.75;4921623;28;97853;-58
2021/10/19 05:11:05;;;;;;;;;;;;;;;8.61;63.73;101309.47;4921323;28;127987;-58
2021/10/19 05:13:30;;;;;;;;;;;;;;;8.59;63.72;101307.00;4920563;28;128614;-57
2021/10/19 05:15:56;;;;;;;;;;;;;;;8.63;63.88;101320.78;4920542;28;129400;-58
2021/10/19 05:18:22;;;;;;;;;;;;;;;8.65;63.65;101326.75;4921335;28;117756;-58
2021/10/19 05:20:48;;;;;;;;;;;;;;;8.68;63.44;101333.53;4934366;28;128145;-58
2021/10/19 05:23:14;;;;;;;;;;;;;;;8.68;63.76;101326.28;4921199;28;127624;-58
2021/10/19 05:25:40;;;;;;;;;;;;;;;8.68;63.95;101320.09;4921411;28;127365;-58
2021/10/19 05:28:06;;;;;;;;;;;;;;;8.70;63.66;101328.75;4922264;28;98443;-57
2021/10/19 05:30:32;;;;;;;;;;;;;;;8.69;63.58;101327.94;4922027;28;98684;-57
2021/10/19 05:32:58;;;;;;;;;;;;;;;8.69;63.85;101327.13;4935110;28;127656;-58
2021/10/19 05:35:24;;;;;;;;;;;;;;;8.70;63.57;101318.00;4935702;28;127067;-57
2021/10/19 05:37:50;;;;;;;;;;;;;;;8.70;63.69;101318.81;4920867;28;117929;-58
2021/10/19 05:40:16;;;;;;;;;;;;;;;8.69;63.85;101317.19;4920984;28;126682;-58
2021/10/19 05:42:41;;;;;;;;;;;;;;;8.70;64.19;101329.56;4920739;28;128042;-57
2021/10/19 05:45:08;;;;;;;;;;;;;;;8.72;64.23;101329.31;4920668;28;127621;-57
2021/10/19 05:47:34;;;;;;;;;;;;;;;8.73;64.25;101333.66;4922004;28;98022;-58
2021/10/19 05:50:00;;;;;;;;;;;;;;;8.72;64.43;101327.44;4920390;28;129309;-57
2021/10/19 05:52:27;;;;;;;;;;;;;;;8.74;63.70;101333.41;4920589;28;99209;-57
2021/10/19 05:54:53;;;;;;;;;;;;;;;8.76;63.83;101334.00;4922101;28;98058;-57
2021/10/19 05:57:19;;;;;;;;;;;;;;;8.77;63.81;101322.19;4921470;28;98004;-58
2021/10/19 05:59:45;;;;;;;;;;;;;;;8.78;63.59;101329.22;4920997;28;99192;-57
2021/10/19 06:02:11;;;;;;;;;;;;;;;8.78;64.04;101333.78;4919347;28;129135;-57
2021/10/19 06:04:36;;;;;;;;;;;;;;;8.79;64.21;101335.41;4901282;28;127583;-59
2021/10/19 06:07:02;;;;;;;;;;;;;;;8.81;63.72;101328.75;4900019;28;104251;-59
2021/10/19 06:09:29;;;;;;;;;;;;;;;8.82;64.30;101327.69;4898972;28;127831;-57
2021/10/19 06:11:55;;;;;;;;;;;;;;;8.85;63.73;101315.66;4899184;28;98806;-58
2021/10/19 06:14:22;;;;;;;;;;;;;;;8.85;63.68;101327.22;4899941;28;104354;-57
2021/10/19 06:16:48;;;;;;;;;;;;;;;8.88;63.90;101335.84;4901522;28;97971;-59
2021/10/19 06:21:58;;;;;;;;;;;;;;;8.94;63.98;101351.88;4891468;28;129674;-57
2021/10/19 06:24:24;;;;;;;;;;;;;;;9.00;63.91;101347.41;4900259;28;126823;-58
2021/10/19 06:26:50;;;;;;;;;;;;;;;9.06;63.45;101335.72;4900678;28;99011;-58
2021/10/19 06:29:16;;;;;;;;;;;;;;;9.14;63.84;101326.47;4898587;28;128517;-58
2021/10/19 06:31:42;;;;;;;;;;;;;;;9.24;63.54;101322.13;4903383;28;98847;-57
2021/10/19 06:34:08;;;;;;;;;;;;;;;9.36;63.34;101314.03;4905605;28;98037;-58
2021/10/19 06:36:35;;;;;;;;;;;;;;;9.49;63.64;101313.75;4905496;28;100838;-60
2021/10/19 06:39:00;;;;;;;;;;;;;;;9.60;63.33;101306.69;4904077;28;98750;-57
2021/10/19 06:41:26;;;;;;;;;;;;;;;9.66;63.30;101307.59;4934594;28;130477;-59
2021/10/19 06:43:52;;;;;;;;;;;;;;;9.68;62.91;101303.63;4903817;28;127037;-57
2021/10/19 06:46:18;;;;;;;;;;;;;;;9.70;62.66;101296.09;4905299;28;97743;-58
2021/10/19 06:48:44;;;;;;;;;;;;;;;9.70;63.09;101301.50;4904516;28;102784;-57
2021/10/19 06:51:10;;;;;;;;;;;;;;;9.72;62.84;101302.06;4904344;28;128753;-58
2021/10/19 06:53:36;;;;;;;;;;;;;;;9.75;63.30;101290.00;4904601;28;97855;-58
2021/10/19 06:56:02;;;;;;;;;;;;;;;9.77;62.87;101301.34;4904895;28;109057;-58
2021/10/19 06:58:28;;;;;;;;;;;;;;;9.79;62.81;101310.00;4903957;28;100902;-58
2021/10/19 07:00:54;;;;;;;;;;;;;;;9.86;62.89;101309.84;4903704;28;128585;-57
2021/10/19 07:03:21;;;;;;;;;;;;;;;9.96;62.22;101313.53;4913310;28;98024;-57
2021/10/19 07:05:47;;;;;;;;;;;;;;;10.06;62.62;101310.19;4939329;28;97732;-58
2021/10/19 07:08:13;;;;;;;;;;;;;;;10.13;62.79;101307.34;4922480;28;128365;-58
2021/10/19 07:10:40;;;;;;;;;;;;;;;10.17;62.95;101314.69;4923154;28;125912;-60
2021/10/19 07:13:06;;;;;;;;;;;;;;;10.21;62.61;101312.34;4923284;28;98529;-60
2021/10/19 07:15:35;;;;;;;;;;;;;;;10.25;62.33;101308.94;4938241;28;117686;-57
2021/10/19 07:18:04;;;;;;;;;;;;;;;10.30;62.00;101313.63;4905667;28;98564;-60
2021/10/19 07:20:30;;;;;;;;;;;;;;;10.35;62.18;101313.69;4906023;28;99257;-57
2021/10/19 07:22:56;;;;;;;;;;;;;;;10.40;62.25;101318.34;4923301;28;98498;-58
2021/10/19 07:25:22;;;;;;;;;;;;;;;10.46;61.72;101310.09;4924549;28;97961;-58
2021/10/19 07:27:48;;;;;;;;;;;;;;;10.51;62.01;101317.44;4922555;28;128892;-57
2021/10/19 07:30:17;;;;;;;;;;;;;;;10.56;62.75;101312.94;4923076;28;127274;-57
2021/10/19 07:32:44;;;;;;;;;;;;;;;10.62;61.91;101311.16;4923426;28;97961;-57
2021/10/19 07:35:10;;;;;;;;;;;;;;;10.70;61.72;101313.41;4923842;28;97790;-57
2021/10/19 07:37:37;;;;;;;;;;;;;;;10.81;61.75;101306.31;4923467;28;98970;-57
2021/10/19 07:40:04;;;;;;;;;;;;;;;10.91;61.37;101295.63;4923452;28;99193;-59
2021/10/19 07:42:33;;;;;;;;;;;;;;;11.02;61.48;101299.28;4921265;28;122733;-59
2021/10/19 07:45:02;;;;;;;;;;;;;;;11.10;60.98;101295.34;4923918;28;98697;-58
2021/10/19 07:47:28;;;;;;;;;;;;;;;11.16;61.75;101291.63;4922431;28;120138;-58
2021/10/19 07:49:54;;;;;;;;;;;;;;;11.22;61.27;101286.03;4922557;28;128113;-59
2021/10/19 07:52:20;;;;;;;;;;;;;;;11.40;61.02;101290.31;4922110;28;127699;-57
2021/10/19 07:54:45;;;;;;;;;;;;;;;11.58;60.53;101283.75;4923351;28;116713;-59
2021/10/19 07:57:12;;;;;;;;;;;;;;;11.82;60.47;101294.25;4921883;28;126127;-57
2021/10/19 07:59:37;;;;;;;;;;;;;;;12.08;60.04;101298.84;4923177;28;98654;-58
2021/10/19 08:02:03;;;;;;;;;;;;;;;12.34;59.77;101297.19;4922431;28;126504;-57
2021/10/19 08:04:29;;;;;;;;;;;;;;;12.59;59.11;101290.31;4922600;28;117055;-57
2021/10/19 08:06:55;;;;;;;;;;;;;;;12.84;58.95;101286.94;4921877;28;128151;-61
2021/10/19 08:09:21;;;;;;;;;;;;;;;13.17;58.63;101278.44;4921959;28;127151;-60
2021/10/19 08:11:47;;;;;;;;;;;;;;;13.41;58.28;101286.16;4922207;28;128661;-59
2021/10/19 08:14:13;;;;;;;;;;;;;;;13.67;57.96;101276.97;4921030;28;110920;-58
2021/10/19 08:16:39;;;;;;;;;;;;;;;14.03;57.29;101281.63;4922531;28;120209;-58
2021/10/19 08:19:05;;;;;;;;;;;;;;;14.54;56.38;101278.91;4921614;28;128144;-59
2021/10/19 08:21:31;;;;;;;;;;;;;;;15.60;54.49;101279.56;4922747;28;127846;-59
2021/10/19 08:23:58;;;;;;;;;;;;;;;15.71;54.91;101281.16;4922816;28;97989;-58
2021/10/19 08:26:29;;;;;;;;;;;;;;;16.84;52.87;101284.56;4922294;28;99027;-59
2021/10/19 08:28:58;;;;;;;;;;;;;;;16.78;53.42;101284.88;4921570;28;98070;-59
2021/10/19 08:31:24;;;;;;;;;;;;;;;18.11;51.37;101282.00;4923193;28;98382;-58
2021/10/19 08:33:52;;;;;;;;;;;;;;;19.04;49.82;101292.09;4921956;28;97804;-58
2021/10/19 08:36:18;;;;;;;;;;;;;;;18.82;50.61;101295.50;4922494;28;97856;-58
2021/10/19 08:38:45;;;;;;;;;;;;;;;18.56;51.42;101309.63;4922142;28;98979;-59
2021/10/19 08:41:14;;;;;;;;;;;;;;;19.37;50.09;101311.88;4922489;28;98419;-59
2021/10/19 08:43:40;;;;;;;;;;;;;;;19.11;50.84;101309.69;4921150;28;112512;-58
2021/10/19 08:46:13;;;;;;;;;;;;;;;20.41;48.75;101296.34;4922467;28;98872;-59
2021/10/19 08:48:39;;;;;;;;;;;;;;;22.11;46.33;101288.34;4921525;28;119756;-59
2021/10/19 08:51:08;;;;;;;;;;;;;;;23.38;45.02;101302.25;4923061;28;97990;-59
2021/10/19 08:53:41;;;;;;;;;;;;;;;24.30;43.98;101292.28;4921324;28;98025;-58
2021/10/19 08:56:08;;;;;;;;;;;;;;;25.59;42.30;101297.28;4921878;28;99445;-60
2021/10/19 08:58:34;;;;;;;;;;;;;;;27.27;40.03;101291.44;4904457;28;98443;-58
2021/10/19 09:01:13;;;;;;;;;;;;;;;26.97;41.23;101291.13;4922852;28;97959;-60
2021/10/19 09:03:49;;;;;;;;;;;;;;;27.52;40.48;101278.16;4921694;28;97937;-60
2021/10/19 09:06:15;;;;;;;;;;;;;;;28.06;40.24;101279.25;4921269;28;124592;-59
2021/10/19 09:08:50;;;;;;;;;;;;;;;26.42;42.74;101268.81;4936531;28;102360;-59
2021/10/19 09:11:16;;;;;;;;;;;;;;;26.12;42.86;101260.13;4922250;28;97961;-60
2021/10/19 09:13:52;;;;;;;;;;;;;;;25.65;43.09;101258.03;4921614;28;99160;-60
2021/10/19 09:16:18;;;;;;;;;;;;;;;25.64;42.84;101248.16;4921518;28;99070;-58
2021/10/19 09:18:44;;;;;;;;;;;;;;;25.46;42.69;101250.38;4886051;28;127089;-58
2021/10/19 09:21:10;;;;;;;;;;;;;;;25.50;42.39;101244.97;4886636;28;127535;-58
2021/10/19 09:23:36;;;;;;;;;;;;;;;26.56;40.66;101243.53;4921092;28;117563;-58
2021/10/19 09:26:03;;;;;;;;;;;;;;;27.41;39.84;101244.72;4921915;28;127115;-60
2021/10/19 09:28:34;;;;;;;;;;;;;;;27.88;39.66;101254.00;4921705;28;98777;-58
2021/10/19 09:31:00;;;;;;;;;;;;;;;28.51;39.15;101255.53;4921996;28;98053;-59
2021/10/19 09:33:26;;;;;;;;;;;;;;;29.16;38.39;101244.28;4921791;28;97784;-59
2021/10/19 09:35:55;;;;;;;;;;;;;;;30.11;36.84;101240.25;4922388;28;98448;-61
2021/10/19 09:38:21;;;;;;;;;;;;;;;31.16;36.10;101243.47;4903131;28;98764;-60
2021/10/19 09:40:51;;;;;;;;;;;;;;;31.04;36.35;101225.13;4901945;28;105155;-60
2021/10/19 09:43:22;;;;;;;;;;;;;;;32.54;34.48;101223.97;4917055;28;97994;-59
2021/10/19 09:45:51;;;;;;;;;;;;;;;31.43;35.38;101229.31;4921295;28;97773;-60
2021/10/19 09:48:19;;;;;;;;;;;;;;;32.90;33.08;101231.09;4921526;28;98342;-59
2021/10/19 09:50:45;;;;;;;;;;;;;;;31.65;34.57;101219.84;4921779;28;98172;-60
2021/10/19 09:53:12;;;;;;;;;;;;;;;30.47;35.85;101216.38;4921538;28;97866;-59
2021/10/19 09:55:38;;;;;;;;;;;;;;;29.31;37.02;101209.16;4921187;28;99725;-58
2021/10/19 09:58:04;;;;;;;;;;;;;;;28.02;37.42;101201.63;4920490;28;99138;-59
2021/10/19 10:00:33;;;;;;;;;;;;;;;27.66;37.18;101186.28;4921432;28;97653;-60
2021/10/19 10:03:01;;;;;;;;;;;;;;;27.54;37.06;101187.25;4921028;28;98232;-60
2021/10/19 10:05:27;;;;;;;;;;;;;;;28.57;35.19;101188.31;4923130;28;99004;-56
2021/10/19 10:07:53;;;;;;;;;;;;;;;29.28;34.40;101194.09;4923610;28;122871;-56
2021/10/19 10:10:21;;;;;;;;;;;;;;;30.06;33.45;101207.25;4923935;28;128181;-56
2021/10/19 10:12:57;;;;;;;;;;;;;;;30.16;33.83;101197.44;4891832;28;97854;-57
2021/10/19 10:15:25;;;;;;;;;;;;;;;29.86;33.91;101203.09;4897028;28;98486;-56
2021/10/19 10:17:52;;;;;;;;;;;;;;;28.20;35.73;101196.38;4925294;28;98710;-58
2021/10/19 10:20:19;;;;;;;;;;;;;;;28.65;34.86;101192.00;4924672;28;97971;-58
2021/10/19 10:22:45;;;;;;;;;;;;;;;28.16;35.20;101186.41;4939313;28;98282;-56
2021/10/19 10:25:17;;;;;;;;;;;;;;;28.25;35.05;101182.22;4924329;28;98273;-56
2021/10/19 10:27:43;;;;;;;;;;;;;;;28.92;34.05;101178.91;4924647;28;98423;-57
2021/10/19 10:30:22;;;;;;;;;;;;;;;29.19;33.49;101181.66;4924778;28;97989;-58
2021/10/19 10:32:49;;;;;;;;;;;;;;;29.56;32.94;101176.16;4924634;28;98088;-56
2021/10/19 10:35:17;;;;;;;;;;;;;;;29.83;32.49;101177.69;4924032;28;98902;-57
2021/10/19 10:37:48;;;;;;;;;;;;;;;29.50;32.98;101172.91;4924884;28;98533;-56
2021/10/19 10:40:35;;;;;;;;;;;;;;;28.91;33.82;101169.00;4925096;28;97885;-56
2021/10/19 10:43:21;;;;;;;;;;;;;;;28.50;34.34;101166.03;4924196;28;100240;-57
2021/10/19 10:45:49;;;;;;;;;;;;;;;27.66;35.07;101162.16;4924037;28;98987;-56
2021/10/19 10:48:17;;;;;;;;;;;;;;;27.12;35.54;101159.53;4921889;28;99272;-56
2021/10/19 10:50:43;;;;;;;;;;;;;;;26.73;35.94;101156.66;4924021;28;98062;-57
2021/10/19 10:53:11;;;;;;;;;;;;;;;26.31;36.20;101148.94;4923184;28;117657;-57
2021/10/19 10:55:40;;;;;;;;;;;;;;;25.86;36.63;101152.13;4923931;28;99452;-56
2021/10/19 10:58:06;;;;;;;;;;;;;;;25.39;36.91;101150.88;4923443;28;99076;-57
2021/10/19 11:00:32;;;;;;;;;;;;;;;24.97;37.46;101142.94;4923621;28;127827;-57
2021/10/19 11:03:15;;;;;;;;;;;;;;;24.67;37.81;101147.13;4905425;28;116322;-57
2021/10/19 11:05:56;;;;;;;;;;;;;;;24.48;37.45;101139.44;4924746;28;98669;-56
2021/10/19 11:08:29;;;;;;;;;;;;;;;24.32;37.78;101135.75;4924089;28;98355;-57
2021/10/19 11:11:07;;;;;;;;;;;;;;;24.28;37.67;101129.31;4923486;28;117840;-57
2021/10/19 11:13:58;;;;;;;;;;;;;;;24.24;37.85;101130.00;4924803;28;98125;-56
2021/10/19 11:16:43;;;;;;;;;;;;;;;24.36;37.37;101122.88;4922708;28;99538;-58
2021/10/19 11:19:24;;;;;;;;;;;;;;;24.22;37.56;101123.25;4923559;28;98032;-56
2021/10/19 11:22:01;;;;;;;;;;;;;;;24.06;37.89;101131.38;4923307;28;98146;-56
2021/10/19 11:24:29;;;;;;;;;;;;;;;23.95;37.92;101124.72;4924164;28;97856;-57
2021/10/19 11:26:55;;;;;;;;;;;;;;;23.89;38.31;101129.63;4922352;28;125674;-56
2021/10/19 11:29:21;;;;;;;;;;;;;;;23.58;38.49;101129.28;4922965;28;121527;-56
2021/10/19 11:31:48;;;;;;;;;;;;;;;23.74;38.09;101131.09;4924388;28;97912;-56
2021/10/19 11:34:13;;;;;;;;;;;;;;;23.59;38.33;101117.16;4921958;28;113298;-57
2021/10/19 11:36:39;;;;;;;;;;;;;;;23.76;38.17;101114.22;4923677;28;111305;-57
2021/10/19 11:39:11;;;;;;;;;;;;;;;23.75;38.42;101115.38;4923202;28;103710;-56
2021/10/19 11:41:38;;;;;;;;;;;;;;;23.61;38.56;101103.84;4923970;28;98910;-56
2021/10/19 11:44:06;;;;;;;;;;;;;;;23.38;38.74;101098.72;4922384;28;105706;-56
2021/10/19 11:46:33;;;;;;;;;;;;;;;23.27;38.92;101094.81;4923097;28;97847;-57
2021/10/19 11:49:04;;;;;;;;;;;;;;;23.12;39.05;101092.69;4923314;28;99425;-56
2021/10/19 11:51:30;;;;;;;;;;;;;;;22.94;39.27;101089.28;4922565;28;121916;-56
2021/10/19 11:53:57;;;;;;;;;;;;;;;22.74;39.24;101088.09;4924039;28;97885;-56
2021/10/19 11:56:23;;;;;;;;;;;;;;;22.57;39.66;101085.50;4905455;28;99054;-56
2021/10/19 11:59:01;;;;;;;;;;;;;;;22.37;39.92;101076.88;4923099;28;98378;-57
2021/10/19 12:01:27;;;;;;;;;;;;;;;22.21;40.27;101065.66;4923465;28;97709;-57
2021/10/19 12:04:07;;;;;;;;;;;;;;;22.04;40.25;101051.97;4923120;28;97805;-55
2021/10/19 12:06:33;;;;;;;;;;;;;;;21.88;40.55;101056.41;4923039;28;98333;-57
2021/10/19 12:09:21;;;;;;;;;;;;;;;21.75;40.59;101048.09;4921319;28;115547;-56
2021/10/19 12:11:55;;;;;;;;;;;;;;;21.61;40.67;101039.25;4923280;28;98075;-57
2021/10/19 12:14:34;;;;;;;;;;;;;;;21.50;40.81;101032.53;4889525;28;97845;-57
2021/10/19 12:17:04;;;;;;;;;;;;;;;21.43;40.95;101026.75;4923118;28;98414;-55
2021/10/19 12:19:31;;;;;;;;;;;;;;;21.36;40.88;101019.00;4923382;28;98108;-56
2021/10/19 12:21:59;;;;;;;;;;;;;;;21.32;41.08;101015.28;4923181;28;122344;-56
2021/10/19 12:24:25;;;;;;;;;;;;;;;21.31;41.16;101028.19;4922621;28;97995;-56
2021/10/19 12:27:01;;;;;;;;;;;;;;;21.31;41.08;101013.69;4905475;28;98327;-57
2021/10/19 12:29:34;;;;;;;;;;;;;;;21.34;40.94;101007.59;4922264;28;98562;-56
2021/10/19 12:32:01;;;;;;;;;;;;;;;21.37;40.85;101014.34;4936799;28;98066;-56
2021/10/19 12:34:27;;;;;;;;;;;;;;;21.38;41.05;101007.72;4921931;28;98121;-57
2021/10/19 12:36:53;;;;;;;;;;;;;;;21.30;41.10;101009.34;4921508;28;126810;-56
2021/10/19 12:39:20;;;;;;;;;;;;;;;21.20;41.30;101010.47;4922561;28;98488;-57
2021/10/19 12:41:46;;;;;;;;;;;;;;;21.14;41.55;101021.91;4922705;28;126470;-57